createdAt,value
2022-11-14T00:01:10.925Z,28.47
2022-11-14T00:03:38.011Z,28.07
2022-11-14T00:06:06.700Z,27.43
2022-11-14T00:08:34.024Z,28.13
2022-11-14T00:11:01.123Z,27.70
2022-11-14T00:13:28.217Z,28.47
2022-11-14T00:15:55.419Z,28.87
2022-11-14T00:18:22.943Z,28.53
2022-11-14T00:20:50.847Z,28.53
2022-11-14T00:23:18.381Z,29.67
2022-11-14T00:25:46.156Z,28.67
2022-11-14T00:28:13.348Z,29.77
2022-11-14T00:30:40.455Z,27.57
2022-11-14T00:33:07.572Z,29.03
2022-11-14T00:35:34.695Z,29.97
2022-11-14T00:38:01.852Z,31.90
2022-11-14T00:40:28.937Z,30.93
2022-11-14T00:42:55.995Z,31.60
2022-11-14T00:45:23.105Z,30.50
2022-11-14T00:47:50.151Z,29.97
2022-11-14T00:50:17.828Z,29.10
2022-11-14T00:52:45.012Z,28.60
2022-11-14T00:55:12.061Z,28.70
2022-11-14T00:57:39.152Z,28.57
2022-11-14T01:00:06.734Z,30.13
2022-11-14T01:02:33.804Z,31.03
2022-11-14T01:05:02.244Z,30.10
2022-11-14T01:07:29.409Z,32.77
2022-11-14T01:09:56.545Z,32.17
2022-11-14T01:12:23.654Z,33.47
2022-11-14T01:14:50.725Z,31.30
2022-11-14T01:17:17.843Z,31.27
2022-11-14T01:19:44.961Z,32.20
2022-11-14T01:22:12.159Z,29.17
2022-11-14T01:24:39.291Z,31.13
2022-11-14T01:27:06.342Z,31.33
2022-11-14T01:29:33.407Z,30.73
2022-11-14T01:32:00.547Z,30.63
2022-11-14T01:34:29.445Z,30.57
2022-11-14T01:36:56.518Z,30.57
2022-11-14T01:39:23.672Z,31.20
2022-11-14T01:41:50.766Z,32.13
2022-11-14T01:44:18.681Z,32.20
2022-11-14T01:46:53.447Z,31.83
2022-11-14T01:49:26.986Z,30.77
2022-11-14T01:51:54.062Z,32.07
2022-11-14T01:54:24.781Z,32.17
2022-11-14T01:56:59.821Z,33.73
2022-11-14T01:59:29.793Z,33.57
2022-11-14T02:01:58.314Z,33.97
2022-11-14T02:04:29.761Z,34.63
2022-11-14T02:06:58.689Z,32.47
2022-11-14T02:09:26.140Z,32.23
2022-11-14T02:11:54.218Z,31.70
2022-11-14T02:14:21.433Z,31.33
2022-11-14T02:17:07.723Z,31.23
2022-11-14T02:19:46.622Z,31.60
2022-11-14T02:22:13.766Z,30.67
2022-11-14T02:24:41.422Z,28.47
2022-11-14T02:27:09.303Z,30.20
2022-11-14T02:29:36.469Z,29.60
2022-11-14T02:32:08.101Z,29.57
2022-11-14T02:34:37.484Z,29.13
2022-11-14T02:37:04.647Z,29.63
2022-11-14T02:39:31.773Z,29.43
2022-11-14T02:41:58.864Z,29.80
2022-11-14T02:44:25.959Z,28.93
2022-11-14T02:46:53.043Z,28.53
2022-11-14T02:49:20.376Z,29.67
2022-11-14T02:51:47.487Z,29.63
2022-11-14T02:54:14.636Z,29.13
2022-11-14T02:56:41.733Z,29.70
2022-11-14T02:59:08.832Z,30.40
2022-11-14T03:01:35.982Z,29.63
2022-11-14T03:04:03.222Z,29.27
2022-11-14T03:06:30.340Z,28.57
2022-11-14T03:08:57.419Z,28.87
2022-11-14T03:11:24.485Z,31.00
2022-11-14T03:13:51.543Z,30.33
2022-11-14T03:16:18.663Z,30.57
2022-11-14T03:18:45.800Z,33.13
2022-11-14T03:21:14.624Z,34.20
2022-11-14T03:23:41.860Z,32.80
2022-11-14T03:26:10.157Z,32.73
2022-11-14T03:28:37.291Z,31.50
2022-11-14T03:31:04.428Z,33.03
2022-11-14T03:33:31.697Z,34.47
2022-11-14T03:35:58.926Z,34.33
2022-11-14T03:38:26.197Z,34.40
2022-11-14T03:40:53.662Z,37.23
2022-11-14T03:43:21.682Z,36.10
2022-11-14T03:45:49.086Z,36.63
2022-11-14T03:48:16.173Z,37.50
2022-11-14T03:50:44.143Z,35.87
2022-11-14T03:53:11.580Z,36.33
2022-11-14T03:55:40.136Z,36.60
2022-11-14T03:58:07.287Z,34.93
2022-11-14T04:00:34.359Z,34.30
2022-11-14T04:03:01.463Z,38.17
2022-11-14T04:05:28.910Z,38.50
2022-11-14T04:07:56.072Z,35.63
2022-11-14T04:10:23.213Z,37.50
2022-11-14T04:12:51.407Z,38.20
2022-11-14T04:15:18.861Z,38.73
2022-11-14T04:17:46.135Z,38.00
2022-11-14T04:20:14.149Z,36.87
2022-11-14T04:22:41.610Z,37.90
2022-11-14T04:25:08.922Z,38.37
2022-11-14T04:27:36.117Z,35.97
2022-11-14T04:30:03.333Z,36.97
2022-11-14T04:32:30.416Z,38.70
2022-11-14T04:34:57.543Z,37.63
2022-11-14T04:37:24.694Z,36.07
2022-11-14T04:39:51.873Z,37.93
2022-11-14T04:42:18.961Z,34.77
2022-11-14T04:44:46.038Z,34.33
2022-11-14T04:47:13.458Z,33.93
2022-11-14T04:49:40.530Z,33.40
2022-11-14T04:52:07.603Z,33.30
2022-11-14T04:54:34.690Z,34.53
2022-11-14T04:57:01.816Z,35.13
2022-11-14T04:59:28.927Z,34.20
2022-11-14T05:01:56.121Z,33.87
2022-11-14T05:04:23.221Z,32.60
2022-11-14T05:06:50.351Z,32.80
2022-11-14T05:09:17.430Z,34.57
2022-11-14T05:11:44.555Z,33.53
2022-11-14T05:14:11.635Z,35.23
2022-11-14T05:16:38.714Z,36.60
2022-11-14T05:19:05.851Z,36.53
2022-11-14T05:21:32.939Z,36.00
2022-11-14T05:24:00.019Z,35.13
2022-11-14T05:26:27.187Z,36.23
2022-11-14T05:28:54.266Z,36.43
2022-11-14T05:31:21.374Z,35.03
2022-11-14T05:33:48.572Z,32.57
2022-11-14T05:36:16.411Z,34.67
2022-11-14T05:38:43.739Z,33.50
2022-11-14T05:41:12.600Z,33.57
2022-11-14T05:43:40.132Z,37.50
2022-11-14T05:46:08.385Z,35.27
2022-11-14T05:48:35.538Z,36.53
2022-11-14T05:51:03.862Z,37.40
2022-11-14T05:53:31.656Z,37.83
2022-11-14T05:56:02.685Z,39.37
2022-11-14T05:58:29.997Z,38.83
2022-11-14T06:01:04.738Z,36.87
2022-11-14T06:03:35.433Z,40.97
2022-11-14T06:06:06.390Z,38.97
2022-11-14T06:08:33.869Z,42.72
2022-11-14T06:11:05.449Z,37.10
2022-11-14T06:13:33.003Z,35.70
2022-11-14T06:16:01.214Z,35.20
2022-11-14T06:18:29.031Z,34.80
2022-11-14T06:21:00.087Z,35.57
2022-11-14T06:23:27.158Z,35.07
2022-11-14T06:25:58.744Z,35.67
2022-11-14T06:28:25.809Z,34.60
2022-11-14T06:30:52.873Z,32.83
2022-11-14T06:33:19.942Z,34.00
2022-11-14T06:35:47.206Z,33.60
2022-11-14T06:38:14.309Z,33.53
2022-11-14T06:40:41.383Z,33.13
2022-11-14T06:43:08.499Z,33.47
2022-11-14T06:45:35.544Z,33.83
2022-11-14T06:48:02.902Z,31.50
2022-11-14T06:50:30.043Z,31.73
2022-11-14T06:52:58.549Z,31.07
2022-11-14T06:55:25.940Z,29.63
2022-11-14T06:57:56.032Z,31.40
2022-11-14T07:00:23.193Z,29.97
2022-11-14T07:02:50.462Z,29.60
2022-11-14T07:05:17.632Z,30.00
2022-11-14T07:07:45.140Z,30.53
2022-11-14T07:10:12.352Z,30.43
2022-11-14T07:12:39.452Z,32.07
2022-11-14T07:15:06.732Z,31.17
2022-11-14T07:17:36.143Z,31.53
2022-11-14T07:20:03.261Z,31.33
2022-11-14T07:22:30.364Z,31.63
2022-11-14T07:24:57.481Z,31.13
2022-11-14T07:27:24.601Z,30.27
2022-11-14T07:29:51.709Z,29.33
2022-11-14T07:32:18.765Z,30.60
2022-11-14T07:34:45.905Z,30.27
2022-11-14T07:37:12.977Z,29.60
2022-11-14T07:39:40.073Z,29.67
2022-11-14T07:42:07.220Z,26.77
2022-11-14T07:44:34.405Z,27.90
2022-11-14T07:47:01.487Z,28.97
2022-11-14T07:49:28.638Z,28.23
2022-11-14T07:51:55.744Z,30.30
2022-11-14T07:54:22.842Z,30.27
2022-11-14T07:56:49.940Z,29.40
2022-11-14T07:59:17.070Z,29.90
2022-11-14T08:01:44.220Z,28.77
2022-11-14T08:04:11.301Z,28.37
2022-11-14T08:06:38.406Z,27.33
2022-11-14T08:09:05.456Z,27.77
2022-11-14T08:11:47.888Z,28.63
2022-11-14T08:14:15.281Z,27.70
2022-11-14T08:16:42.489Z,26.93
2022-11-14T08:19:09.573Z,26.27
2022-11-14T08:21:36.943Z,26.83
2022-11-14T08:24:04.046Z,26.27
2022-11-14T08:26:34.237Z,26.07
2022-11-14T08:29:01.916Z,26.27
2022-11-14T08:31:29.076Z,23.17
2022-11-14T08:33:56.172Z,23.63
2022-11-14T08:36:23.324Z,22.20
2022-11-14T08:38:51.687Z,23.23
2022-11-14T08:41:19.174Z,25.00
2022-11-14T08:43:46.285Z,23.40
2022-11-14T08:46:13.329Z,24.20
2022-11-14T08:48:40.413Z,23.30
2022-11-14T08:51:07.580Z,24.67
2022-11-14T08:53:35.163Z,26.20
2022-11-14T08:56:02.877Z,26.83
2022-11-14T08:58:31.387Z,24.80
2022-11-14T09:01:06.417Z,27.03
2022-11-14T09:03:33.967Z,26.57
2022-11-14T09:06:01.818Z,25.13
2022-11-14T09:08:29.799Z,25.43
2022-11-14T09:11:04.842Z,25.33
2022-11-14T09:13:33.800Z,27.93
2022-11-14T09:16:00.892Z,26.07
2022-11-14T09:18:28.234Z,25.33
2022-11-14T09:20:59.996Z,23.73
2022-11-14T09:23:27.334Z,20.17
2022-11-14T09:25:55.896Z,20.03
2022-11-14T09:28:23.594Z,22.20
2022-11-14T09:30:50.791Z,23.40
2022-11-14T09:33:17.916Z,21.17
2022-11-14T09:35:45.008Z,21.30
2022-11-14T09:38:12.522Z,22.50
2022-11-14T09:40:53.009Z,21.70
2022-11-14T09:43:31.406Z,22.60
2022-11-14T09:45:58.760Z,22.30
2022-11-14T09:48:29.880Z,22.77
2022-11-14T09:51:05.786Z,21.73
2022-11-14T09:53:36.034Z,19.67
2022-11-14T09:56:03.160Z,19.63
2022-11-14T09:58:30.482Z,16.63
2022-11-14T10:01:06.376Z,16.97
2022-11-14T10:03:47.568Z,17.53
2022-11-14T10:06:22.834Z,16.67
2022-11-14T10:08:59.341Z,16.90
2022-11-14T10:11:34.967Z,17.93
2022-11-14T10:14:05.210Z,17.13
2022-11-14T10:16:35.046Z,15.10
2022-11-14T10:19:14.939Z,15.53
2022-11-14T10:21:54.272Z,16.60
2022-11-14T10:24:27.211Z,17.47
2022-11-14T10:27:00.121Z,18.63
2022-11-14T10:29:47.215Z,20.93
2022-11-14T10:32:26.673Z,20.47
2022-11-14T10:35:23.071Z,20.53
2022-11-14T10:37:53.172Z,21.03
2022-11-14T10:40:27.990Z,20.03
2022-11-14T10:43:07.404Z,20.50
2022-11-14T10:45:41.408Z,20.57
2022-11-14T10:48:15.005Z,20.90
2022-11-14T10:51:14.740Z,18.90
2022-11-14T10:54:05.587Z,17.30
2022-11-14T10:56:32.692Z,15.13
2022-11-14T10:58:59.749Z,10.53
2022-11-14T11:01:35.145Z,10.17
2022-11-14T11:04:16.190Z,10.17
2022-11-14T11:06:44.193Z,9.43
2022-11-14T11:09:40.629Z,9.30
2022-11-14T11:12:16.222Z,9.53
2022-11-14T11:14:44.008Z,8.83
2022-11-14T11:17:22.231Z,8.80
2022-11-14T11:19:49.931Z,9.40
2022-11-14T11:22:23.267Z,10.23
2022-11-14T11:24:50.358Z,8.63
2022-11-14T11:27:20.572Z,9.00
2022-11-14T11:29:47.650Z,8.83
2022-11-14T11:32:24.992Z,8.90
2022-11-14T11:34:52.651Z,9.30
2022-11-14T11:37:24.573Z,9.90
2022-11-14T11:39:53.401Z,9.60
2022-11-14T11:42:33.903Z,10.50
2022-11-14T11:45:17.537Z,9.07
2022-11-14T11:47:51.351Z,9.43
2022-11-14T11:50:19.715Z,9.87
2022-11-14T11:52:58.114Z,10.13
2022-11-14T11:55:26.410Z,10.30
2022-11-14T11:58:14.115Z,10.23
2022-11-14T12:00:41.185Z,10.70
2022-11-14T12:03:20.184Z,10.40
2022-11-14T12:06:02.651Z,10.70
2022-11-14T12:08:46.473Z,10.43
2022-11-14T12:11:17.512Z,10.70
2022-11-14T12:13:50.606Z,11.43
2022-11-14T12:16:17.684Z,10.80
2022-11-14T12:19:20.311Z,10.77
2022-11-14T12:22:11.057Z,11.43
2022-11-14T12:24:56.571Z,11.77
2022-11-14T12:27:31.552Z,12.03
2022-11-14T12:30:09.918Z,11.17
2022-11-14T12:32:45.965Z,11.27
2022-11-14T12:35:25.341Z,11.07
2022-11-14T12:37:55.901Z,10.73
2022-11-14T12:40:32.616Z,11.07
2022-11-14T12:43:00.470Z,11.03
2022-11-14T12:45:36.697Z,11.47
2022-11-14T12:48:22.262Z,10.90
2022-11-14T12:50:49.611Z,11.47
2022-11-14T12:53:37.895Z,10.73
2022-11-14T12:56:23.420Z,10.80
2022-11-14T12:58:59.476Z,11.03
2022-11-14T13:01:32.552Z,11.70
2022-11-14T13:04:02.420Z,12.27
2022-11-14T13:06:43.601Z,11.20
2022-11-14T13:09:10.676Z,9.40
2022-11-14T13:11:59.973Z,11.07
2022-11-14T13:14:46.053Z,10.10
2022-11-14T13:17:37.543Z,10.37
2022-11-14T13:20:43.457Z,10.20
2022-11-14T13:23:29.003Z,10.00
2022-11-14T13:26:11.583Z,11.00
2022-11-14T13:28:38.642Z,9.77
2022-11-14T13:31:19.294Z,10.17
2022-11-14T13:33:46.584Z,9.67
2022-11-14T13:36:32.528Z,10.00
2022-11-14T13:39:20.485Z,10.00
2022-11-14T13:41:58.619Z,10.53
2022-11-14T13:44:35.065Z,11.23
2022-11-14T13:47:13.055Z,13.60
2022-11-14T13:49:48.361Z,14.47
2022-11-14T13:52:16.025Z,13.00
2022-11-14T13:54:50.302Z,12.03
2022-11-14T13:57:32.569Z,11.00
2022-11-14T14:00:18.438Z,11.33
2022-11-14T14:02:47.036Z,10.50
2022-11-14T14:05:46.496Z,10.27
2022-11-14T14:08:25.470Z,13.10
2022-11-14T14:10:57.967Z,12.87
2022-11-14T14:13:40.526Z,15.17
2022-11-14T14:16:32.976Z,12.33
2022-11-14T14:19:23.028Z,10.53
2022-11-14T14:22:16.253Z,10.13
2022-11-14T14:24:43.329Z,10.63
2022-11-14T14:27:29.145Z,10.00
2022-11-14T14:30:10.619Z,10.40
2022-11-14T14:32:37.799Z,11.03
2022-11-14T14:35:40.749Z,10.73
2022-11-14T14:38:22.040Z,9.60
2022-11-14T14:40:49.141Z,10.60
2022-11-14T14:43:33.344Z,10.93
2022-11-14T14:46:00.512Z,10.37
2022-11-14T14:48:29.491Z,10.30
2022-11-14T14:51:00.253Z,10.33
2022-11-14T14:53:29.872Z,9.20
2022-11-14T14:56:01.520Z,9.77
2022-11-14T14:58:29.676Z,12.10
2022-11-14T15:01:07.643Z,12.00
2022-11-14T15:03:40.430Z,12.93
2022-11-14T15:06:30.021Z,12.67
2022-11-14T15:08:58.236Z,13.30
2022-11-14T15:11:31.308Z,12.37
2022-11-14T15:14:00.030Z,12.30
2022-11-14T15:16:28.176Z,12.57
2022-11-14T15:18:56.221Z,13.20
2022-11-14T15:21:30.250Z,12.00
2022-11-14T15:24:03.571Z,11.83
2022-11-14T15:26:31.671Z,12.03
2022-11-14T15:29:17.861Z,12.23
2022-11-14T15:31:55.387Z,11.47
2022-11-14T15:34:32.821Z,12.50
2022-11-14T15:37:26.158Z,11.43
2022-11-14T15:39:53.469Z,12.50
2022-11-14T15:42:26.610Z,13.07
2022-11-14T15:44:53.721Z,13.33
2022-11-14T15:47:22.654Z,14.70
2022-11-14T15:49:59.365Z,14.53
2022-11-14T15:52:32.510Z,14.73
2022-11-14T15:54:59.632Z,15.67
2022-11-14T15:57:26.735Z,16.47
2022-11-14T15:59:53.849Z,16.03
2022-11-14T16:02:22.513Z,15.20
2022-11-14T16:04:52.001Z,15.17
2022-11-14T16:07:19.764Z,16.33
2022-11-14T16:09:46.905Z,17.23
2022-11-14T16:12:14.531Z,17.60
2022-11-14T16:14:41.744Z,20.43
2022-11-14T16:17:16.075Z,17.83
2022-11-14T16:19:43.520Z,16.97
2022-11-14T16:22:12.434Z,17.20
2022-11-14T16:24:39.951Z,17.63
2022-11-14T16:27:07.128Z,19.53
2022-11-14T16:29:34.232Z,18.73
2022-11-14T16:32:01.729Z,18.83
2022-11-14T16:34:28.800Z,17.30
2022-11-14T16:37:00.284Z,17.50
2022-11-14T16:39:27.505Z,17.97
2022-11-14T16:41:59.961Z,22.97
2022-11-14T16:44:27.161Z,17.40
2022-11-14T16:46:54.306Z,27.63
2022-11-14T16:49:21.379Z,22.83
2022-11-14T16:51:50.625Z,25.17
2022-11-14T16:54:18.747Z,22.67
2022-11-14T16:56:45.789Z,22.70
2022-11-14T16:59:13.159Z,22.00
2022-11-14T17:01:40.389Z,21.00
2022-11-14T17:04:07.588Z,19.30
2022-11-14T17:06:34.769Z,19.20
2022-11-14T17:09:01.896Z,18.80
2022-11-14T17:11:29.254Z,18.27
2022-11-14T17:13:57.094Z,16.07
2022-11-14T17:16:24.277Z,17.43
2022-11-14T17:18:52.425Z,19.47
2022-11-14T17:21:19.495Z,20.57
2022-11-14T17:23:46.665Z,19.40
2022-11-14T17:26:14.651Z,16.23
2022-11-14T17:28:43.170Z,15.43
2022-11-14T17:31:10.311Z,17.23
2022-11-14T17:33:37.662Z,18.53
2022-11-14T17:36:08.918Z,18.13
2022-11-14T17:38:36.555Z,19.37
2022-11-14T17:41:07.029Z,18.93
2022-11-14T17:43:39.104Z,17.43
2022-11-14T17:46:11.181Z,16.40
2022-11-14T17:48:42.520Z,16.40
2022-11-14T17:51:11.629Z,16.30
2022-11-14T17:53:38.937Z,18.10
2022-11-14T17:56:07.573Z,17.83
2022-11-14T17:58:35.040Z,16.93
2022-11-14T18:01:02.277Z,17.93
2022-11-14T18:03:29.457Z,14.77
2022-11-14T18:06:09.801Z,17.30
2022-11-14T18:08:36.972Z,18.03
2022-11-14T18:11:05.297Z,18.13
2022-11-14T18:13:32.431Z,19.10
2022-11-14T18:16:03.354Z,16.87
2022-11-14T18:18:31.987Z,16.17
2022-11-14T18:20:59.672Z,16.97
2022-11-14T18:23:26.808Z,18.07
2022-11-14T18:25:53.864Z,18.13
2022-11-14T18:28:21.012Z,18.37
2022-11-14T18:30:55.643Z,17.20
2022-11-14T18:33:23.189Z,17.20
2022-11-14T18:36:00.324Z,17.00
2022-11-14T18:38:30.209Z,16.83
2022-11-14T18:40:59.935Z,16.03
2022-11-14T18:43:29.503Z,11.80
2022-11-14T18:45:56.850Z,10.23
2022-11-14T18:48:24.064Z,7.87
2022-11-14T18:50:51.153Z,7.50
2022-11-14T18:53:18.307Z,7.57
2022-11-14T18:55:45.711Z,7.03
2022-11-14T18:58:14.423Z,7.67
2022-11-14T19:00:41.508Z,6.93
2022-11-14T19:03:09.410Z,7.03
2022-11-14T19:05:36.884Z,8.83
2022-11-14T19:08:05.266Z,11.10
2022-11-14T19:10:32.381Z,11.07
2022-11-14T19:12:59.435Z,8.87
2022-11-14T19:15:26.561Z,7.73
2022-11-14T19:17:53.681Z,8.57
2022-11-14T19:20:20.772Z,7.60
2022-11-14T19:22:47.854Z,6.97
2022-11-14T19:25:15.000Z,7.00
2022-11-14T19:27:42.169Z,7.37
2022-11-14T19:30:09.536Z,7.20
2022-11-14T19:32:36.723Z,6.40
2022-11-14T19:35:03.912Z,7.30
2022-11-14T19:37:31.023Z,7.53
2022-11-14T19:39:58.074Z,5.67
2022-11-14T19:42:25.214Z,5.70
2022-11-14T19:44:52.361Z,5.90
2022-11-14T19:47:19.479Z,5.40
2022-11-14T19:49:46.573Z,5.87
2022-11-14T19:52:14.044Z,5.47
2022-11-14T19:54:41.205Z,5.40
2022-11-14T19:57:08.356Z,5.93
2022-11-14T19:59:35.458Z,5.43
2022-11-14T20:02:02.599Z,5.97
2022-11-14T20:04:31.465Z,5.87
2022-11-14T20:07:01.522Z,5.57
2022-11-14T20:09:28.738Z,6.90
2022-11-14T20:11:55.926Z,8.93
2022-11-14T20:14:23.043Z,9.50
2022-11-14T20:16:50.200Z,8.90
2022-11-14T20:19:17.405Z,6.70
2022-11-14T20:21:45.442Z,6.80
2022-11-14T20:24:17.536Z,6.40
2022-11-14T20:26:45.297Z,6.30
2022-11-14T20:29:12.388Z,5.93
2022-11-14T20:31:39.522Z,6.43
2022-11-14T20:34:06.708Z,6.20
2022-11-14T20:36:50.301Z,6.20
2022-11-14T20:39:21.017Z,7.17
2022-11-14T20:41:48.113Z,6.80
2022-11-14T20:44:15.440Z,7.70
2022-11-14T20:46:42.614Z,7.43
2022-11-14T20:49:10.309Z,9.63
2022-11-14T20:51:37.572Z,8.03
2022-11-14T20:54:04.770Z,11.20
2022-11-14T20:56:31.893Z,8.97
2022-11-14T20:58:59.101Z,8.57
2022-11-14T21:01:26.319Z,8.10
2022-11-14T21:03:53.752Z,8.20
2022-11-14T21:06:20.851Z,7.80
2022-11-14T21:08:47.982Z,7.53
2022-11-14T21:11:18.053Z,8.00
2022-11-14T21:13:57.295Z,7.53
2022-11-14T21:16:25.794Z,7.23
2022-11-14T21:18:54.098Z,7.80
2022-11-14T21:21:23.605Z,7.83
2022-11-14T21:23:51.259Z,7.57
2022-11-14T21:26:19.871Z,8.20
2022-11-14T21:28:49.105Z,8.20
2022-11-14T21:31:22.189Z,7.83
2022-11-14T21:33:50.338Z,9.23
2022-11-14T21:39:05.160Z,8.13
2022-11-14T21:41:32.593Z,7.40
2022-11-14T21:44:00.911Z,7.10
2022-11-14T21:46:28.247Z,7.30
2022-11-14T21:48:56.464Z,7.50
2022-11-14T21:51:27.701Z,7.80
2022-11-14T21:53:58.249Z,6.37
2022-11-14T21:56:27.579Z,7.00
2022-11-14T21:59:14.014Z,7.67
2022-11-14T22:02:11.413Z,7.47
2022-11-14T22:04:38.847Z,7.50
2022-11-14T22:07:07.214Z,7.33
2022-11-14T22:09:34.989Z,7.47
2022-11-14T22:12:02.342Z,7.53
2022-11-14T22:14:29.655Z,7.80
2022-11-14T22:16:58.016Z,7.30
2022-11-14T22:19:25.398Z,7.47
2022-11-14T22:21:52.887Z,7.90
2022-11-14T22:24:20.091Z,8.13
2022-11-14T22:26:47.175Z,7.70
2022-11-14T22:29:14.325Z,7.67
2022-11-14T22:31:41.469Z,7.40
2022-11-14T22:34:08.614Z,8.40
2022-11-14T22:36:36.210Z,8.50
2022-11-14T22:39:03.497Z,8.57
2022-11-14T22:41:33.098Z,8.87
2022-11-14T22:44:01.151Z,7.37
2022-11-14T22:46:28.273Z,8.00
2022-11-14T22:48:55.485Z,7.47
2022-11-14T22:51:23.386Z,7.73
2022-11-14T22:53:51.456Z,7.13
2022-11-14T22:56:19.609Z,6.83
2022-11-14T22:58:47.038Z,7.40
2022-11-14T23:01:16.725Z,6.93
2022-11-14T23:03:44.077Z,7.10
2022-11-14T23:06:12.189Z,7.10
2022-11-14T23:08:39.398Z,7.03
2022-11-14T23:11:07.652Z,7.10
2022-11-14T23:13:41.838Z,7.97
2022-11-14T23:16:09.657Z,9.00
2022-11-14T23:18:37.234Z,8.10
2022-11-14T23:21:08.634Z,7.13
2022-11-14T23:23:36.006Z,6.63
2022-11-14T23:26:10.873Z,6.87
2022-11-14T23:28:38.142Z,6.87
2022-11-14T23:31:05.589Z,7.57
2022-11-14T23:33:33.138Z,6.60
2022-11-14T23:36:00.645Z,6.40
2022-11-14T23:38:30.488Z,5.77
2022-11-14T23:40:58.744Z,6.60
2022-11-14T23:43:26.368Z,6.57
2022-11-14T23:45:53.736Z,6.10
2022-11-14T23:48:21.693Z,6.80
2022-11-14T23:50:52.933Z,6.70
2022-11-14T23:53:20.030Z,6.30
2022-11-14T23:55:57.583Z,6.50
2022-11-14T23:58:25.209Z,5.90
